sensor_id;sensor_type;location;lat;lon;timestamp;P1;durP1;ratioP1;P2;durP2;ratioP2
20000;SDS011;10161;41.188;-8.642;2022-08-11T00:00:31;7.90;;;7.03;;
20000;SDS011;10161;41.188;-8.642;2022-08-11T00:03:02;6.97;;;6.37;;
20000;SDS011;10161;41.188;-8.642;2022-08-11T00:05:31;7.80;;;7.10;;
20000;SDS011;10161;41.188;-8.642;2022-08-11T00:08:00;7.33;;;6.63;;
20000;SDS011;10161;41.188;-8.642;2022-08-11T00:10:28;7.73;;;6.00;;
20000;SDS011;10161;41.188;-8.642;2022-08-11T00:12:58;8.63;;;6.73;;
20000;SDS011;10161;41.188;-8.642;2022-08-11T00:15:26;7.37;;;6.13;;
20000;SDS011;10161;41.188;-8.642;2022-08-11T00:18:09;11.70;;;8.30;;
20000;SDS011;10161;41.188;-8.642;2022-08-11T00:20:38;7.30;;;6.60;;
20000;SDS011;10161;41.188;-8.642;2022-08-11T00:23:08;7.70;;;6.00;;
20000;SDS011;10161;41.188;-8.642;2022-08-11T00:25:37;7.80;;;7.10;;
20000;SDS011;10161;41.188;-8.642;2022-08-11T00:30:54;8.80;;;8.00;;
20000;SDS011;10161;41.188;-8.642;2022-08-11T00:33:22;12.70;;;9.57;;
20000;SDS011;10161;41.188;-8.642;2022-08-11T00:35:58;11.60;;;8.23;;
20000;SDS011;10161;41.188;-8.642;2022-08-11T00:38:29;9.13;;;7.63;;
20000;SDS011;10161;41.188;-8.642;2022-08-11T00:40:59;9.40;;;7.87;;
20000;SDS011;10161;41.188;-8.642;2022-08-11T00:43:37;11.10;;;8.10;;
20000;SDS011;10161;41.188;-8.642;2022-08-11T00:46:15;7.23;;;6.53;;
20000;SDS011;10161;41.188;-8.642;2022-08-11T00:48:49;8.30;;;7.07;;
20000;SDS011;10161;41.188;-8.642;2022-08-11T00:51:35;7.93;;;7.07;;
20000;SDS011;10161;41.188;-8.642;2022-08-11T00:54:25;7.17;;;6.47;;
20000;SDS011;10161;41.188;-8.642;2022-08-11T01:00:05;7.20;;;6.20;;
20000;SDS011;10161;41.188;-8.642;2022-08-11T01:02:44;8.50;;;7.00;;
20000;SDS011;10161;41.188;-8.642;2022-08-11T01:11:16;9.37;;;8.37;;
20000;SDS011;10161;41.188;-8.642;2022-08-11T01:35:26;13.77;;;10.97;;
20000;SDS011;10161;41.188;-8.642;2022-08-11T01:41:06;11.07;;;9.90;;
20000;SDS011;10161;41.188;-8.642;2022-08-11T01:44:29;15.03;;;10.07;;
20000;SDS011;10161;41.188;-8.642;2022-08-11T01:47:07;13.10;;;11.40;;
20000;SDS011;10161;41.188;-8.642;2022-08-11T01:50:11;15.47;;;11.47;;
20000;SDS011;10161;41.188;-8.642;2022-08-11T01:52:45;13.57;;;12.17;;
20000;SDS011;10161;41.188;-8.642;2022-08-11T01:55:23;11.50;;;9.80;;
20000;SDS011;10161;41.188;-8.642;2022-08-11T01:57:55;13.70;;;10.70;;
20000;SDS011;10161;41.188;-8.642;2022-08-11T02:00:29;16.20;;;12.30;;
20000;SDS011;10161;41.188;-8.642;2022-08-11T02:03:02;15.37;;;13.47;;
20000;SDS011;10161;41.188;-8.642;2022-08-11T02:11:16;24.33;;;17.90;;
20000;SDS011;10161;41.188;-8.642;2022-08-11T02:14:09;18.60;;;16.67;;
20000;SDS011;10161;41.188;-8.642;2022-08-11T02:16:43;17.37;;;15.57;;
20000;SDS011;10161;41.188;-8.642;2022-08-11T02:19:19;18.13;;;14.37;;
20000;SDS011;10161;41.188;-8.642;2022-08-11T02:22:08;16.73;;;14.90;;
20000;SDS011;10161;41.188;-8.642;2022-08-11T02:25:01;20.77;;;15.50;;
20000;SDS011;10161;41.188;-8.642;2022-08-11T02:27:33;17.00;;;14.10;;
20000;SDS011;10161;41.188;-8.642;2022-08-11T02:30:06;14.87;;;13.10;;
20000;SDS011;10161;41.188;-8.642;2022-08-11T02:32:35;15.17;;;13.57;;
20000;SDS011;10161;41.188;-8.642;2022-08-11T02:35:25;16.17;;;12.30;;
20000;SDS011;10161;41.188;-8.642;2022-08-11T02:37:58;11.53;;;10.30;;
20000;SDS011;10161;41.188;-8.642;2022-08-11T02:40:35;13.40;;;11.97;;
20000;SDS011;10161;41.188;-8.642;2022-08-11T02:43:12;13.07;;;11.77;;
20000;SDS011;10161;41.188;-8.642;2022-08-11T02:46:04;14.53;;;13.03;;
20000;SDS011;10161;41.188;-8.642;2022-08-11T02:48:47;19.73;;;15.20;;
20000;SDS011;10161;41.188;-8.642;2022-08-11T02:51:39;18.90;;;14.07;;
20000;SDS011;10161;41.188;-8.642;2022-08-11T02:54:11;22.03;;;15.67;;
20000;SDS011;10161;41.188;-8.642;2022-08-11T02:56:45;18.50;;;14.63;;
20000;SDS011;10161;41.188;-8.642;2022-08-11T02:59:25;18.93;;;13.60;;
20000;SDS011;10161;41.188;-8.642;2022-08-11T03:02:14;13.30;;;10.73;;
20000;SDS011;10161;41.188;-8.642;2022-08-11T03:04:48;12.40;;;11.17;;
20000;SDS011;10161;41.188;-8.642;2022-08-11T03:07:27;13.00;;;10.80;;
20000;SDS011;10161;41.188;-8.642;2022-08-11T03:09:59;16.73;;;12.90;;
20000;SDS011;10161;41.188;-8.642;2022-08-11T03:12:32;16.33;;;13.07;;
20000;SDS011;10161;41.188;-8.642;2022-08-11T03:15:28;15.27;;;12.77;;
20000;SDS011;10161;41.188;-8.642;2022-08-11T03:18:17;12.40;;;10.43;;
20000;SDS011;10161;41.188;-8.642;2022-08-11T03:20:52;14.73;;;10.77;;
20000;SDS011;10161;41.188;-8.642;2022-08-11T03:23:28;16.93;;;13.63;;
20000;SDS011;10161;41.188;-8.642;2022-08-11T03:26:00;14.40;;;12.07;;
20000;SDS011;10161;41.188;-8.642;2022-08-11T03:28:33;13.23;;;11.50;;
20000;SDS011;10161;41.188;-8.642;2022-08-11T03:31:14;12.17;;;10.90;;
20000;SDS011;10161;41.188;-8.642;2022-08-11T03:33:50;13.10;;;11.80;;
20000;SDS011;10161;41.188;-8.642;2022-08-11T03:36:33;14.83;;;13.23;;
20000;SDS011;10161;41.188;-8.642;2022-08-11T03:39:09;13.70;;;11.80;;
20000;SDS011;10161;41.188;-8.642;2022-08-11T03:41:39;12.73;;;10.93;;
20000;SDS011;10161;41.188;-8.642;2022-08-11T03:44:27;12.63;;;11.07;;
20000;SDS011;10161;41.188;-8.642;2022-08-11T03:47:16;13.00;;;10.90;;
20000;SDS011;10161;41.188;-8.642;2022-08-11T03:49:56;12.40;;;11.10;;
20000;SDS011;10161;41.188;-8.642;2022-08-11T03:52:31;13.10;;;11.20;;
20000;SDS011;10161;41.188;-8.642;2022-08-11T03:55:18;17.83;;;11.47;;
20000;SDS011;10161;41.188;-8.642;2022-08-11T04:01:23;12.47;;;10.97;;
20000;SDS011;10161;41.188;-8.642;2022-08-11T04:04:20;12.20;;;11.00;;
20000;SDS011;10161;41.188;-8.642;2022-08-11T04:07:13;14.27;;;12.13;;
20000;SDS011;10161;41.188;-8.642;2022-08-11T04:13:12;13.70;;;11.70;;
20000;SDS011;10161;41.188;-8.642;2022-08-11T04:16:27;13.83;;;12.50;;
20000;SDS011;10161;41.188;-8.642;2022-08-11T04:28:22;15.43;;;13.70;;
20000;SDS011;10161;41.188;-8.642;2022-08-11T04:31:00;15.23;;;13.60;;
20000;SDS011;10161;41.188;-8.642;2022-08-11T04:33:42;15.87;;;14.17;;
20000;SDS011;10161;41.188;-8.642;2022-08-11T04:36:36;13.47;;;11.80;;
20000;SDS011;10161;41.188;-8.642;2022-08-11T04:39:33;19.97;;;15.30;;
20000;SDS011;10161;41.188;-8.642;2022-08-11T04:42:37;17.20;;;13.77;;
20000;SDS011;10161;41.188;-8.642;2022-08-11T04:45:38;16.70;;;13.90;;
20000;SDS011;10161;41.188;-8.642;2022-08-11T04:48:20;16.83;;;14.20;;
20000;SDS011;10161;41.188;-8.642;2022-08-11T04:54:25;15.60;;;13.90;;
20000;SDS011;10161;41.188;-8.642;2022-08-11T04:57:16;15.23;;;13.57;;
20000;SDS011;10161;41.188;-8.642;2022-08-11T05:00:05;13.80;;;12.07;;
20000;SDS011;10161;41.188;-8.642;2022-08-11T05:06:00;10.80;;;9.80;;
20000;SDS011;10161;41.188;-8.642;2022-08-11T05:09:04;11.00;;;9.90;;
20000;SDS011;10161;41.188;-8.642;2022-08-11T05:12:03;13.40;;;12.13;;
20000;SDS011;10161;41.188;-8.642;2022-08-11T05:14:36;16.73;;;12.13;;
20000;SDS011;10161;41.188;-8.642;2022-08-11T05:17:29;14.63;;;12.27;;
20000;SDS011;10161;41.188;-8.642;2022-08-11T05:20:18;15.33;;;13.70;;
20000;SDS011;10161;41.188;-8.642;2022-08-11T05:23:06;14.70;;;12.20;;
20000;SDS011;10161;41.188;-8.642;2022-08-11T05:25:54;14.93;;;13.40;;
20000;SDS011;10161;41.188;-8.642;2022-08-11T05:28:41;24.00;;;18.53;;
20000;SDS011;10161;41.188;-8.642;2022-08-11T05:31:31;18.10;;;15.30;;
20000;SDS011;10161;41.188;-8.642;2022-08-11T05:34:19;19.80;;;16.03;;
20000;SDS011;10161;41.188;-8.642;2022-08-11T05:37:06;21.20;;;16.87;;
20000;SDS011;10161;41.188;-8.642;2022-08-11T05:39:38;19.67;;;15.13;;
20000;SDS011;10161;41.188;-8.642;2022-08-11T05:42:27;22.20;;;15.70;;
20000;SDS011;10161;41.188;-8.642;2022-08-11T05:45:14;19.37;;;14.40;;
20000;SDS011;10161;41.188;-8.642;2022-08-11T05:50:28;17.27;;;15.13;;
20000;SDS011;10161;41.188;-8.642;2022-08-11T05:53:12;24.87;;;18.10;;
20000;SDS011;10161;41.188;-8.642;2022-08-11T05:55:57;24.70;;;20.20;;
20000;SDS011;10161;41.188;-8.642;2022-08-11T05:58:45;20.73;;;17.10;;
20000;SDS011;10161;41.188;-8.642;2022-08-11T06:01:20;21.53;;;17.77;;
20000;SDS011;10161;41.188;-8.642;2022-08-11T06:03:49;21.30;;;17.83;;
20000;SDS011;10161;41.188;-8.642;2022-08-11T06:06:34;21.00;;;16.67;;
20000;SDS011;10161;41.188;-8.642;2022-08-11T06:09:04;23.47;;;19.97;;
20000;SDS011;10161;41.188;-8.642;2022-08-11T06:11:35;21.83;;;19.20;;
20000;SDS011;10161;41.188;-8.642;2022-08-11T06:14:05;21.97;;;18.27;;
20000;SDS011;10161;41.188;-8.642;2022-08-11T06:16:32;24.37;;;20.83;;
20000;SDS011;10161;41.188;-8.642;2022-08-11T06:19:00;25.50;;;20.33;;
20000;SDS011;10161;41.188;-8.642;2022-08-11T06:21:28;22.23;;;18.30;;
20000;SDS011;10161;41.188;-8.642;2022-08-11T06:23:59;21.73;;;18.40;;
20000;SDS011;10161;41.188;-8.642;2022-08-11T06:26:26;20.70;;;18.50;;
20000;SDS011;10161;41.188;-8.642;2022-08-11T06:28:55;19.20;;;16.27;;
20000;SDS011;10161;41.188;-8.642;2022-08-11T06:31:27;21.50;;;19.20;;
20000;SDS011;10161;41.188;-8.642;2022-08-11T06:33:55;25.50;;;19.03;;
20000;SDS011;10161;41.188;-8.642;2022-08-11T06:36:27;23.63;;;16.77;;
20000;SDS011;10161;41.188;-8.642;2022-08-11T06:39:01;20.20;;;16.43;;
20000;SDS011;10161;41.188;-8.642;2022-08-11T06:41:37;21.90;;;18.67;;
20000;SDS011;10161;41.188;-8.642;2022-08-11T06:44:14;22.50;;;17.33;;
20000;SDS011;10161;41.188;-8.642;2022-08-11T06:46:47;19.63;;;15.17;;
20000;SDS011;10161;41.188;-8.642;2022-08-11T06:49:16;17.30;;;14.30;;
20000;SDS011;10161;41.188;-8.642;2022-08-11T06:52:04;15.53;;;12.53;;
20000;SDS011;10161;41.188;-8.642;2022-08-11T06:54:32;20.33;;;17.93;;
20000;SDS011;10161;41.188;-8.642;2022-08-11T06:57:00;21.27;;;17.13;;
20000;SDS011;10161;41.188;-8.642;2022-08-11T06:59:46;16.20;;;14.53;;
20000;SDS011;10161;41.188;-8.642;2022-08-11T07:02:32;15.43;;;13.57;;
20000;SDS011;10161;41.188;-8.642;2022-08-11T07:05:04;17.80;;;15.50;;
20000;SDS011;10161;41.188;-8.642;2022-08-11T07:08:00;14.90;;;13.30;;
20000;SDS011;10161;41.188;-8.642;2022-08-11T07:10:59;19.87;;;16.03;;
20000;SDS011;10161;41.188;-8.642;2022-08-11T07:13:55;17.33;;;14.87;;
20000;SDS011;10161;41.188;-8.642;2022-08-11T07:16:43;16.70;;;14.50;;
20000;SDS011;10161;41.188;-8.642;2022-08-11T07:19:12;20.47;;;16.43;;
20000;SDS011;10161;41.188;-8.642;2022-08-11T07:22:00;23.63;;;16.30;;
20000;SDS011;10161;41.188;-8.642;2022-08-11T07:24:48;21.40;;;16.77;;
20000;SDS011;10161;41.188;-8.642;2022-08-11T07:27:40;26.53;;;16.67;;
20000;SDS011;10161;41.188;-8.642;2022-08-11T07:30:26;22.27;;;16.10;;
20000;SDS011;10161;41.188;-8.642;2022-08-11T07:32:54;20.43;;;14.90;;
20000;SDS011;10161;41.188;-8.642;2022-08-11T07:35:26;20.73;;;15.00;;
20000;SDS011;10161;41.188;-8.642;2022-08-11T07:37:56;18.63;;;14.50;;
20000;SDS011;10161;41.188;-8.642;2022-08-11T07:40:24;16.13;;;13.20;;
20000;SDS011;10161;41.188;-8.642;2022-08-11T07:42:52;17.37;;;13.03;;
20000;SDS011;10161;41.188;-8.642;2022-08-11T07:45:19;30.17;;;15.47;;
20000;SDS011;10161;41.188;-8.642;2022-08-11T07:48:06;18.67;;;12.77;;
20000;SDS011;10161;41.188;-8.642;2022-08-11T07:50:52;15.70;;;12.67;;
20000;SDS011;10161;41.188;-8.642;2022-08-11T07:53:37;18.00;;;12.30;;
20000;SDS011;10161;41.188;-8.642;2022-08-11T07:56:04;20.03;;;13.47;;
20000;SDS011;10161;41.188;-8.642;2022-08-11T07:58:33;15.70;;;12.50;;
20000;SDS011;10161;41.188;-8.642;2022-08-11T08:01:19;18.03;;;13.20;;
20000;SDS011;10161;41.188;-8.642;2022-08-11T08:04:05;15.30;;;13.20;;
20000;SDS011;10161;41.188;-8.642;2022-08-11T08:06:53;13.40;;;11.37;;
20000;SDS011;10161;41.188;-8.642;2022-08-11T08:09:37;19.30;;;14.10;;
20000;SDS011;10161;41.188;-8.642;2022-08-11T08:12:22;24.67;;;15.03;;
20000;SDS011;10161;41.188;-8.642;2022-08-11T08:15:07;22.97;;;14.70;;
20000;SDS011;10161;41.188;-8.642;2022-08-11T08:17:54;14.70;;;12.90;;
20000;SDS011;10161;41.188;-8.642;2022-08-11T08:20:23;17.70;;;13.80;;
20000;SDS011;10161;41.188;-8.642;2022-08-11T08:22:53;16.03;;;13.07;;
20000;SDS011;10161;41.188;-8.642;2022-08-11T08:25:25;15.90;;;13.27;;
20000;SDS011;10161;41.188;-8.642;2022-08-11T08:27:54;18.70;;;13.00;;
20000;SDS011;10161;41.188;-8.642;2022-08-11T08:30:22;19.10;;;12.97;;
20000;SDS011;10161;41.188;-8.642;2022-08-11T08:33:08;17.40;;;11.50;;
20000;SDS011;10161;41.188;-8.642;2022-08-11T08:35:35;20.03;;;11.53;;
20000;SDS011;10161;41.188;-8.642;2022-08-11T08:38:04;16.77;;;10.90;;
20000;SDS011;10161;41.188;-8.642;2022-08-11T08:40:31;12.50;;;10.20;;
20000;SDS011;10161;41.188;-8.642;2022-08-11T08:43:01;16.37;;;10.17;;
20000;SDS011;10161;41.188;-8.642;2022-08-11T08:45:32;15.10;;;10.13;;
20000;SDS011;10161;41.188;-8.642;2022-08-11T08:48:00;15.70;;;11.27;;
20000;SDS011;10161;41.188;-8.642;2022-08-11T08:50:31;17.33;;;11.67;;
20000;SDS011;10161;41.188;-8.642;2022-08-11T08:53:19;14.87;;;11.70;;
20000;SDS011;10161;41.188;-8.642;2022-08-11T08:55:47;13.63;;;10.47;;
20000;SDS011;10161;41.188;-8.642;2022-08-11T08:58:17;14.57;;;10.43;;
20000;SDS011;10161;41.188;-8.642;2022-08-11T09:00:45;17.67;;;11.57;;
20000;SDS011;10161;41.188;-8.642;2022-08-11T09:03:13;15.83;;;11.90;;
20000;SDS011;10161;41.188;-8.642;2022-08-11T09:05:39;16.67;;;11.67;;
20000;SDS011;10161;41.188;-8.642;2022-08-11T09:08:07;19.70;;;11.60;;
20000;SDS011;10161;41.188;-8.642;2022-08-11T09:10:36;15.43;;;12.93;;
20000;SDS011;10161;41.188;-8.642;2022-08-11T09:13:03;14.97;;;11.97;;
20000;SDS011;10161;41.188;-8.642;2022-08-11T09:15:33;17.57;;;12.37;;
20000;SDS011;10161;41.188;-8.642;2022-08-11T09:18:01;21.40;;;11.80;;
20000;SDS011;10161;41.188;-8.642;2022-08-11T09:20:32;20.57;;;12.30;;
20000;SDS011;10161;41.188;-8.642;2022-08-11T09:23:01;15.00;;;10.83;;
20000;SDS011;10161;41.188;-8.642;2022-08-11T09:25:49;12.87;;;10.03;;
20000;SDS011;10161;41.188;-8.642;2022-08-11T09:28:34;16.37;;;10.30;;
20000;SDS011;10161;41.188;-8.642;2022-08-11T09:31:02;16.63;;;11.10;;
20000;SDS011;10161;41.188;-8.642;2022-08-11T09:33:29;23.00;;;12.00;;
20000;SDS011;10161;41.188;-8.642;2022-08-11T09:35:57;17.00;;;11.30;;
20000;SDS011;10161;41.188;-8.642;2022-08-11T09:38:47;16.40;;;9.63;;
20000;SDS011;10161;41.188;-8.642;2022-08-11T09:41:33;22.40;;;11.03;;
20000;SDS011;10161;41.188;-8.642;2022-08-11T09:44:01;14.13;;;10.60;;
20000;SDS011;10161;41.188;-8.642;2022-08-11T09:46:45;17.07;;;9.33;;
20000;SDS011;10161;41.188;-8.642;2022-08-11T09:49:12;17.03;;;11.47;;
20000;SDS011;10161;41.188;-8.642;2022-08-11T09:51:39;16.00;;;9.00;;
20000;SDS011;10161;41.188;-8.642;2022-08-11T09:54:07;19.53;;;10.70;;
20000;SDS011;10161;41.188;-8.642;2022-08-11T09:56:36;19.70;;;11.03;;
20000;SDS011;10161;41.188;-8.642;2022-08-11T09:59:20;14.70;;;10.20;;
20000;SDS011;10161;41.188;-8.642;2022-08-11T10:01:48;11.23;;;10.10;;
20000;SDS011;10161;41.188;-8.642;2022-08-11T10:04:18;10.93;;;8.67;;
20000;SDS011;10161;41.188;-8.642;2022-08-11T10:06:48;16.60;;;9.70;;
20000;SDS011;10161;41.188;-8.642;2022-08-11T10:09:27;15.17;;;10.73;;
20000;SDS011;10161;41.188;-8.642;2022-08-11T10:11:57;16.90;;;10.87;;
20000;SDS011;10161;41.188;-8.642;2022-08-11T10:14:25;14.27;;;10.17;;
20000;SDS011;10161;41.188;-8.642;2022-08-11T10:17:10;20.80;;;11.77;;
20000;SDS011;10161;41.188;-8.642;2022-08-11T10:19:38;19.47;;;10.97;;
20000;SDS011;10161;41.188;-8.642;2022-08-11T10:22:06;15.80;;;11.37;;
20000;SDS011;10161;41.188;-8.642;2022-08-11T10:24:50;18.27;;;11.70;;
20000;SDS011;10161;41.188;-8.642;2022-08-11T10:27:37;14.00;;;10.70;;
20000;SDS011;10161;41.188;-8.642;2022-08-11T10:30:05;16.70;;;12.47;;
20000;SDS011;10161;41.188;-8.642;2022-08-11T10:32:50;15.93;;;11.30;;
20000;SDS011;10161;41.188;-8.642;2022-08-11T10:35:35;15.30;;;11.10;;
20000;SDS011;10161;41.188;-8.642;2022-08-11T10:38:02;19.53;;;11.00;;
20000;SDS011;10161;41.188;-8.642;2022-08-11T10:40:29;21.70;;;12.53;;
20000;SDS011;10161;41.188;-8.642;2022-08-11T10:43:00;15.40;;;10.83;;
20000;SDS011;10161;41.188;-8.642;2022-08-11T10:45:38;20.43;;;13.10;;
20000;SDS011;10161;41.188;-8.642;2022-08-11T10:51:31;18.73;;;11.77;;
20000;SDS011;10161;41.188;-8.642;2022-08-11T10:54:34;19.27;;;11.90;;
20000;SDS011;10161;41.188;-8.642;2022-08-11T10:57:19;22.10;;;12.13;;
20000;SDS011;10161;41.188;-8.642;2022-08-11T11:00:06;15.10;;;10.40;;
20000;SDS011;10161;41.188;-8.642;2022-08-11T11:02:39;14.13;;;11.60;;
20000;SDS011;10161;41.188;-8.642;2022-08-11T11:05:08;15.60;;;10.80;;
20000;SDS011;10161;41.188;-8.642;2022-08-11T11:10:59;16.50;;;10.87;;
20000;SDS011;10161;41.188;-8.642;2022-08-11T11:13:28;19.93;;;11.97;;
20000;SDS011;10161;41.188;-8.642;2022-08-11T11:16:14;21.33;;;11.80;;
20000;SDS011;10161;41.188;-8.642;2022-08-11T11:19:04;16.40;;;10.83;;
20000;SDS011;10161;41.188;-8.642;2022-08-11T11:21:34;22.77;;;10.83;;
20000;SDS011;10161;41.188;-8.642;2022-08-11T11:24:15;23.17;;;12.77;;
20000;SDS011;10161;41.188;-8.642;2022-08-11T11:27:11;19.33;;;11.27;;
20000;SDS011;10161;41.188;-8.642;2022-08-11T11:29:49;12.60;;;9.13;;
20000;SDS011;10161;41.188;-8.642;2022-08-11T11:32:26;17.90;;;10.80;;
20000;SDS011;10161;41.188;-8.642;2022-08-11T11:37:50;15.67;;;10.43;;
20000;SDS011;10161;41.188;-8.642;2022-08-11T11:40:18;21.90;;;12.30;;
20000;SDS011;10161;41.188;-8.642;2022-08-11T11:42:47;23.40;;;12.67;;
20000;SDS011;10161;41.188;-8.642;2022-08-11T11:45:15;25.17;;;13.10;;
20000;SDS011;10161;41.188;-8.642;2022-08-11T11:47:45;23.17;;;11.60;;
20000;SDS011;10161;41.188;-8.642;2022-08-11T11:50:13;18.67;;;10.50;;
20000;SDS011;10161;41.188;-8.642;2022-08-11T11:52:43;26.63;;;12.70;;
20000;SDS011;10161;41.188;-8.642;2022-08-11T11:55:10;19.40;;;11.47;;
20000;SDS011;10161;41.188;-8.642;2022-08-11T11:57:37;21.00;;;11.57;;
20000;SDS011;10161;41.188;-8.642;2022-08-11T12:00:22;16.57;;;11.33;;
20000;SDS011;10161;41.188;-8.642;2022-08-11T12:03:09;18.10;;;12.50;;
20000;SDS011;10161;41.188;-8.642;2022-08-11T12:05:36;14.73;;;10.00;;
20000;SDS011;10161;41.188;-8.642;2022-08-11T12:08:04;12.47;;;11.17;;
20000;SDS011;10161;41.188;-8.642;2022-08-11T12:10:42;16.60;;;11.30;;
20000;SDS011;10161;41.188;-8.642;2022-08-11T12:13:10;19.40;;;12.30;;
20000;SDS011;10161;41.188;-8.642;2022-08-11T12:15:55;19.00;;;11.93;;
20000;SDS011;10161;41.188;-8.642;2022-08-11T12:18:26;12.70;;;11.10;;
20000;SDS011;10161;41.188;-8.642;2022-08-11T12:20:54;11.67;;;9.47;;
20000;SDS011;10161;41.188;-8.642;2022-08-11T12:23:22;19.37;;;10.80;;
20000;SDS011;10161;41.188;-8.642;2022-08-11T12:26:06;15.37;;;11.53;;
20000;SDS011;10161;41.188;-8.642;2022-08-11T12:28:50;16.20;;;10.47;;
20000;SDS011;10161;41.188;-8.642;2022-08-11T12:31:17;17.53;;;10.27;;
20000;SDS011;10161;41.188;-8.642;2022-08-11T12:33:51;14.80;;;10.33;;
20000;SDS011;10161;41.188;-8.642;2022-08-11T12:36:20;15.23;;;9.60;;
20000;SDS011;10161;41.188;-8.642;2022-08-11T12:38:47;15.20;;;9.53;;
20000;SDS011;10161;41.188;-8.642;2022-08-11T12:41:15;16.40;;;9.90;;
20000;SDS011;10161;41.188;-8.642;2022-08-11T12:44:00;12.60;;;9.60;;
20000;SDS011;10161;41.188;-8.642;2022-08-11T12:46:48;14.60;;;9.53;;
20000;SDS011;10161;41.188;-8.642;2022-08-11T12:49:17;11.53;;;8.63;;
20000;SDS011;10161;41.188;-8.642;2022-08-11T12:52:05;9.30;;;8.40;;
20000;SDS011;10161;41.188;-8.642;2022-08-11T12:54:39;20.33;;;8.57;;
20000;SDS011;10161;41.188;-8.642;2022-08-11T12:57:11;11.20;;;7.93;;
20000;SDS011;10161;41.188;-8.642;2022-08-11T12:59:57;10.90;;;7.87;;
20000;SDS011;10161;41.188;-8.642;2022-08-11T13:02:43;14.30;;;7.80;;
20000;SDS011;10161;41.188;-8.642;2022-08-11T13:05:31;14.83;;;7.33;;
20000;SDS011;10161;41.188;-8.642;2022-08-11T13:07:59;10.10;;;7.33;;
20000;SDS011;10161;41.188;-8.642;2022-08-11T13:10:27;14.60;;;7.00;;
20000;SDS011;10161;41.188;-8.642;2022-08-11T13:13:12;13.47;;;7.97;;
20000;SDS011;10161;41.188;-8.642;2022-08-11T13:15:40;12.37;;;6.47;;
20000;SDS011;10161;41.188;-8.642;2022-08-11T13:18:07;9.43;;;7.17;;
20000;SDS011;10161;41.188;-8.642;2022-08-11T13:20:36;11.07;;;6.50;;
20000;SDS011;10161;41.188;-8.642;2022-08-11T13:23:03;12.13;;;7.83;;
20000;SDS011;10161;41.188;-8.642;2022-08-11T13:25:30;11.80;;;7.80;;
20000;SDS011;10161;41.188;-8.642;2022-08-11T13:27:58;15.10;;;8.60;;
20000;SDS011;10161;41.188;-8.642;2022-08-11T13:30:27;10.37;;;7.37;;
20000;SDS011;10161;41.188;-8.642;2022-08-11T13:33:13;11.70;;;7.37;;
20000;SDS011;10161;41.188;-8.642;2022-08-11T13:35:43;16.03;;;7.50;;
20000;SDS011;10161;41.188;-8.642;2022-08-11T13:38:13;12.73;;;8.10;;
20000;SDS011;10161;41.188;-8.642;2022-08-11T13:40:41;13.40;;;7.10;;
20000;SDS011;10161;41.188;-8.642;2022-08-11T13:43:09;13.67;;;7.70;;
20000;SDS011;10161;41.188;-8.642;2022-08-11T13:45:36;12.10;;;7.40;;
20000;SDS011;10161;41.188;-8.642;2022-08-11T13:48:05;20.27;;;7.90;;
20000;SDS011;10161;41.188;-8.642;2022-08-11T13:50:33;12.93;;;6.43;;
20000;SDS011;10161;41.188;-8.642;2022-08-11T13:53:16;14.17;;;7.80;;
20000;SDS011;10161;41.188;-8.642;2022-08-11T13:55:46;12.80;;;7.73;;
20000;SDS011;10161;41.188;-8.642;2022-08-11T13:58:13;12.77;;;7.43;;
20000;SDS011;10161;41.188;-8.642;2022-08-11T14:00:43;13.17;;;7.00;;
20000;SDS011;10161;41.188;-8.642;2022-08-11T14:03:11;11.57;;;7.20;;
20000;SDS011;10161;41.188;-8.642;2022-08-11T14:05:39;17.47;;;8.47;;
20000;SDS011;10161;41.188;-8.642;2022-08-11T14:08:10;13.17;;;8.10;;
20000;SDS011;10161;41.188;-8.642;2022-08-11T14:10:46;16.47;;;7.80;;
20000;SDS011;10161;41.188;-8.642;2022-08-11T14:13:36;11.10;;;8.00;;
20000;SDS011;10161;41.188;-8.642;2022-08-11T14:16:04;18.93;;;8.73;;
20000;SDS011;10161;41.188;-8.642;2022-08-11T14:18:37;12.37;;;8.10;;
20000;SDS011;10161;41.188;-8.642;2022-08-11T14:21:06;12.53;;;8.33;;
20000;SDS011;10161;41.188;-8.642;2022-08-11T14:23:52;18.03;;;8.53;;
20000;SDS011;10161;41.188;-8.642;2022-08-11T14:26:26;16.87;;;8.57;;
20000;SDS011;10161;41.188;-8.642;2022-08-11T14:28:54;16.30;;;8.90;;
20000;SDS011;10161;41.188;-8.642;2022-08-11T14:31:22;12.70;;;7.27;;
20000;SDS011;10161;41.188;-8.642;2022-08-11T14:33:52;11.27;;;7.33;;
20000;SDS011;10161;41.188;-8.642;2022-08-11T14:36:21;15.83;;;7.70;;
20000;SDS011;10161;41.188;-8.642;2022-08-11T14:38:49;11.53;;;7.80;;
20000;SDS011;10161;41.188;-8.642;2022-08-11T14:41:19;19.30;;;7.47;;
20000;SDS011;10161;41.188;-8.642;2022-08-11T14:44:05;18.10;;;8.57;;
20000;SDS011;10161;41.188;-8.642;2022-08-11T14:46:52;13.90;;;8.13;;
20000;SDS011;10161;41.188;-8.642;2022-08-11T14:49:33;17.83;;;8.10;;
20000;SDS011;10161;41.188;-8.642;2022-08-11T14:52:03;16.67;;;8.80;;
20000;SDS011;10161;41.188;-8.642;2022-08-11T14:54:33;18.20;;;7.60;;
20000;SDS011;10161;41.188;-8.642;2022-08-11T14:57:19;20.63;;;8.10;;
20000;SDS011;10161;41.188;-8.642;2022-08-11T14:59:49;11.97;;;7.47;;
20000;SDS011;10161;41.188;-8.642;2022-08-11T15:02:17;11.40;;;6.90;;
20000;SDS011;10161;41.188;-8.642;2022-08-11T15:05:03;18.07;;;8.00;;
20000;SDS011;10161;41.188;-8.642;2022-08-11T15:07:32;13.77;;;7.20;;
20000;SDS011;10161;41.188;-8.642;2022-08-11T15:10:01;16.80;;;6.60;;
20000;SDS011;10161;41.188;-8.642;2022-08-11T15:12:29;9.50;;;6.03;;
20000;SDS011;10161;41.188;-8.642;2022-08-11T15:14:58;12.13;;;6.80;;
20000;SDS011;10161;41.188;-8.642;2022-08-11T15:17:43;10.57;;;6.20;;
20000;SDS011;10161;41.188;-8.642;2022-08-11T15:20:13;12.43;;;6.30;;
20000;SDS011;10161;41.188;-8.642;2022-08-11T15:22:59;12.20;;;7.00;;
20000;SDS011;10161;41.188;-8.642;2022-08-11T15:25:45;8.90;;;5.63;;
20000;SDS011;10161;41.188;-8.642;2022-08-11T15:28:17;14.30;;;7.00;;
20000;SDS011;10161;41.188;-8.642;2022-08-11T15:31:04;10.40;;;6.23;;
20000;SDS011;10161;41.188;-8.642;2022-08-11T15:34:01;14.10;;;6.83;;
20000;SDS011;10161;41.188;-8.642;2022-08-11T15:36:48;11.47;;;6.43;;
20000;SDS011;10161;41.188;-8.642;2022-08-11T15:39:34;12.47;;;6.93;;
20000;SDS011;10161;41.188;-8.642;2022-08-11T15:42:26;11.37;;;7.03;;
20000;SDS011;10161;41.188;-8.642;2022-08-11T15:45:11;12.80;;;6.10;;
20000;SDS011;10161;41.188;-8.642;2022-08-11T15:48:00;9.00;;;5.40;;
20000;SDS011;10161;41.188;-8.642;2022-08-11T15:50:32;13.10;;;6.70;;
20000;SDS011;10161;41.188;-8.642;2022-08-11T15:53:01;11.73;;;6.30;;
20000;SDS011;10161;41.188;-8.642;2022-08-11T15:55:29;9.80;;;5.30;;
20000;SDS011;10161;41.188;-8.642;2022-08-11T15:58:00;13.03;;;7.10;;
20000;SDS011;10161;41.188;-8.642;2022-08-11T16:00:46;11.80;;;5.73;;
20000;SDS011;10161;41.188;-8.642;2022-08-11T16:03:34;13.83;;;6.30;;
20000;SDS011;10161;41.188;-8.642;2022-08-11T16:06:24;8.97;;;5.70;;
20000;SDS011;10161;41.188;-8.642;2022-08-11T16:08:53;14.57;;;6.90;;
20000;SDS011;10161;41.188;-8.642;2022-08-11T16:11:23;16.00;;;6.20;;
20000;SDS011;10161;41.188;-8.642;2022-08-11T16:13:53;10.70;;;6.20;;
20000;SDS011;10161;41.188;-8.642;2022-08-11T16:16:37;8.10;;;5.70;;
20000;SDS011;10161;41.188;-8.642;2022-08-11T16:19:06;11.33;;;6.33;;
20000;SDS011;10161;41.188;-8.642;2022-08-11T16:21:35;14.60;;;5.97;;
20000;SDS011;10161;41.188;-8.642;2022-08-11T16:24:05;7.87;;;5.67;;
20000;SDS011;10161;41.188;-8.642;2022-08-11T16:26:34;7.17;;;5.47;;